Time;durP1;ratioP1;P1;durP2;ratioP2;P2;SDS_P1;SDS_P2;PMS_P1;PMS_P2;Temp;Humidity;BMP_temperature;BMP_pressure;BME280_temperature;BME280_humidity;BME280_pressure;Samples;Min_cycle;Max_cycle;Signal;HPM_P1;HPM_P2
2023/07/30 00:01:27;;;;;;;3.23;2.90;;;18.00;99.90;;;;;;5040338;28;20974;-87
2023/07/30 00:03:52;;;;;;;3.60;2.43;;;18.00;99.90;;;;;;5032326;28;20449;-86
2023/07/30 00:06:18;;;;;;;4.22;2.60;;;;;;;;;;5043019;28;20430;-87
2023/07/30 00:08:48;;;;;;;6.83;2.70;;;18.00;99.90;;;;;;5042210;28;20177;-89
2023/07/30 00:11:14;;;;;;;5.33;2.50;;;;;;;;;;5055878;28;20848;-89
2023/07/30 00:13:40;;;;;;;3.30;2.50;;;;;;;;;;5050782;28;20454;-88
2023/07/30 00:16:06;;;;;;;2.97;2.60;;;;;;;;;;5043285;28;20830;-89
2023/07/30 00:18:32;;;;;;;3.77;2.83;;;18.10;99.90;;;;;;5061091;28;20550;-88
2023/07/30 00:20:58;;;;;;;4.07;2.60;;;;;;;;;;5041247;28;20516;-88
2023/07/30 00:23:23;;;;;;;5.20;2.27;;;18.00;99.90;;;;;;5043966;28;20181;-88
2023/07/30 00:25:49;;;;;;;2.60;2.33;;;18.00;99.90;;;;;;5058307;28;20412;-89
2023/07/30 00:28:19;;;;;;;4.77;1.83;;;18.00;99.90;;;;;;5042396;28;20161;-88
2023/07/30 00:30:46;;;;;;;2.37;1.80;;;18.00;99.90;;;;;;5035038;28;20174;-90
2023/07/30 00:33:12;;;;;;;3.83;1.70;;;;;;;;;;5043196;28;20442;-88
2023/07/30 00:35:38;;;;;;;4.13;3.00;;;17.90;99.90;;;;;;5058344;28;20493;-88
2023/07/30 00:38:03;;;;;;;2.83;1.43;;;17.90;99.90;;;;;;5063357;28;20478;-89
2023/07/30 00:40:29;;;;;;;2.07;1.33;;;18.30;99.90;;;;;;5042703;28;20178;-88
2023/07/30 00:42:54;;;;;;;4.10;1.97;;;17.90;99.90;;;;;;5029025;28;20626;-90
2023/07/30 00:45:20;;;;;;;3.93;1.90;;;17.90;99.90;;;;;;5041490;28;20264;-90
2023/07/30 00:47:46;;;;;;;4.10;1.60;;;18.00;99.90;;;;;;5039214;28;20252;-89
2023/07/30 00:50:14;;;;;;;2.43;1.60;;;18.20;99.90;;;;;;5040441;28;22174;-90
2023/07/30 00:52:40;;;;;;;3.20;1.80;;;18.10;99.90;;;;;;5045292;28;20501;-90
2023/07/30 00:55:07;;;;;;;2.40;1.53;;;18.10;99.90;;;;;;5042992;28;20955;-90
2023/07/30 00:57:35;;;;;;;1.33;1.17;;;18.10;99.90;;;;;;5044313;28;20474;-91
2023/07/30 01:00:06;;;;;;;2.10;1.57;;;18.10;99.90;;;;;;5043026;28;20474;-90
2023/07/30 01:02:32;;;;;;;2.20;1.20;;;18.30;99.90;;;;;;5046213;28;20428;-90
2023/07/30 01:04:59;;;;;;;1.50;1.07;;;18.10;99.90;;;;;;5043561;28;20458;-91
2023/07/30 01:07:25;;;;;;;2.00;0.97;;;18.00;99.90;;;;;;5040719;28;20451;-90
2023/07/30 01:09:51;;;;;;;1.40;1.17;;;18.00;99.90;;;;;;5042896;28;20439;-91
2023/07/30 01:12:17;;;;;;;2.70;1.10;;;18.00;99.90;;;;;;5044852;28;20811;-91
2023/07/30 01:14:45;;;;;;;2.00;1.37;;;18.00;99.90;;;;;;5038516;28;20422;-90
2023/07/30 01:17:12;;;;;;;1.90;1.20;;;18.00;99.90;;;;;;5039312;28;20189;-91
2023/07/30 01:19:38;;;;;;;2.30;1.20;;;;;;;;;;5043819;28;20872;-91
2023/07/30 01:22:04;;;;;;;1.63;1.07;;;;;;;;;;5043134;28;20453;-91
2023/07/30 01:24:30;;;;;;;1.27;1.07;;;;;;;;;;5037117;28;20506;-90
2023/07/30 01:27:02;;;;;;;1.17;1.07;;;18.10;99.90;;;;;;5041130;28;20436;-91
2023/07/30 01:29:41;;;;;;;1.37;1.00;;;18.20;99.90;;;;;;5047484;28;20435;-90
2023/07/30 01:32:10;;;;;;;2.40;1.40;;;18.20;99.90;;;;;;5040420;28;20445;-89
2023/07/30 01:34:37;;;;;;;2.03;1.30;;;18.20;99.90;;;;;;5055034;28;20807;-90
2023/07/30 01:37:05;;;;;;;1.53;1.03;;;18.30;99.90;;;;;;5047212;28;20436;-90
2023/07/30 01:39:33;;;;;;;2.13;1.60;;;18.30;99.90;;;;;;5031958;28;20477;-90
2023/07/30 01:41:59;;;;;;;4.40;1.70;;;;;;;;;;5044951;28;20463;-90
2023/07/30 01:44:25;;;;;;;1.80;1.43;;;;;;;;;;5043989;28;20495;-89
2023/07/30 01:46:51;;;;;;;2.03;1.53;;;;;;;;;;5057183;28;20535;-89
2023/07/30 01:49:16;;;;;;;2.60;1.40;;;18.20;99.90;;;;;;5059573;28;20438;-90
2023/07/30 01:51:43;;;;;;;4.00;1.63;;;18.10;99.90;;;;;;5043003;28;20491;-89
2023/07/30 01:54:09;;;;;;;2.30;1.30;;;18.10;99.90;;;;;;5040522;28;20180;-90
2023/07/30 01:56:34;;;;;;;2.73;1.80;;;18.00;99.90;;;;;;5043393;28;20432;-90
2023/07/30 01:59:00;;;;;;;6.03;1.67;;;;;;;;;;5042976;28;20197;-90
2023/07/30 02:01:26;;;;;;;2.60;2.27;;;;;;;;;;5040566;28;20220;-90
2023/07/30 02:03:52;;;;;;;1.50;1.40;;;;;;;;;;5052744;28;20424;-90
2023/07/30 02:06:18;;;;;;;2.07;1.20;;;;;;;;;;5059458;28;20480;-90
2023/07/30 02:08:44;;;;;;;3.40;1.90;;;;;;;;;;5044939;28;20407;-89
2023/07/30 02:11:10;;;;;;;2.40;2.20;;;;;;;;;;5044646;28;20480;-90
2023/07/30 02:13:36;;;;;;;6.30;2.37;;;;;;;;;;5044168;28;20462;-89
2023/07/30 02:16:03;;;;;;;6.33;2.70;;;;;;;;;;5044289;28;20414;-89
2023/07/30 02:18:28;;;;;;;3.20;2.27;;;18.00;99.90;;;;;;5046147;28;20851;-89
2023/07/30 02:20:54;;;;;;;4.13;2.87;;;18.10;99.90;;;;;;5044520;28;20529;-91
2023/07/30 02:23:19;;;;;;;8.83;2.80;;;18.10;99.90;;;;;;5044829;28;20264;-91
2023/07/30 02:25:45;;;;;;;4.43;3.00;;;18.10;99.90;;;;;;5044978;28;20170;-90
2023/07/30 02:28:10;;;;;;;3.50;3.20;;;19.40;99.90;;;;;;5055392;28;20520;-89
2023/07/30 02:30:36;;;;;;;4.73;3.40;;;18.30;99.90;;;;;;5062209;28;20211;-90
2023/07/30 02:33:02;;;;;;;4.33;3.43;;;18.30;99.90;;;;;;5048806;28;20260;-90
2023/07/30 02:35:27;;;;;;;4.07;3.50;;;18.30;99.90;;;;;;5060777;28;20257;-89
2023/07/30 02:37:53;;;;;;;5.47;3.93;;;18.40;99.90;;;;;;5051326;28;20197;-88
2023/07/30 02:40:18;;;;;;;2.97;2.73;;;18.90;99.90;;;;;;5069446;28;20666;-89
2023/07/30 02:42:44;;;;;;;3.50;3.20;;;18.50;99.90;;;;;;5051973;28;20193;-88
2023/07/30 02:45:10;;;;;;;5.40;3.80;;;18.50;99.90;;;;;;5048195;28;20532;-88
2023/07/30 02:47:35;;;;;;;5.63;4.10;;;18.60;99.90;;;;;;5040990;28;20169;-89
2023/07/30 02:50:03;;;;;;;4.63;3.90;;;18.60;99.90;;;;;;5062904;28;20459;-88
2023/07/30 02:52:28;;;;;;;5.50;4.00;;;18.70;99.90;;;;;;5064320;28;20205;-88
2023/07/30 02:54:54;;;;;;;5.50;4.53;;;18.80;99.90;;;;;;5063893;28;20458;-89
2023/07/30 02:57:19;;;;;;;6.20;4.50;;;18.80;99.90;;;;;;5035958;28;20198;-89
2023/07/30 02:59:45;;;;;;;5.93;4.87;;;18.80;99.90;;;;;;5057244;28;20195;-90
2023/07/30 03:02:10;;;;;;;5.80;4.47;;;18.80;99.90;;;;;;5045237;28;20537;-88
2023/07/30 03:04:36;;;;;;;4.43;4.03;;;18.70;99.90;;;;;;5048448;28;20260;-90
2023/07/30 03:07:02;;;;;;;4.47;4.00;;;;;;;;;;5055856;28;20177;-89
2023/07/30 03:09:28;;;;;;;4.60;4.03;;;18.80;99.90;;;;;;5047039;28;20658;-89
2023/07/30 03:11:53;;;;;;;4.20;3.80;;;18.80;99.90;;;;;;5048891;28;20451;-90
2023/07/30 03:14:22;;;;;;;6.00;4.07;;;18.80;99.90;;;;;;5036381;28;20589;-90
2023/07/30 03:16:48;;;;;;;12.03;4.57;;;18.80;99.90;;;;;;5069326;28;20628;-89
2023/07/30 03:19:14;;;;;;;6.73;4.00;;;18.80;99.90;;;;;;5040342;28;20534;-88
2023/07/30 03:21:40;;;;;;;4.67;4.17;;;18.80;99.90;;;;;;5036545;28;20464;-89
2023/07/30 03:24:06;;;;;;;4.67;4.27;;;18.90;99.90;;;;;;5041066;28;20423;-90
2023/07/30 03:26:31;;;;;;;3.40;3.07;;;19.00;99.90;;;;;;5039851;28;20932;-90
2023/07/30 03:28:57;;;;;;;5.73;3.40;;;19.00;99.90;;;;;;5039090;28;20190;-90
2023/07/30 03:31:23;;;;;;;3.90;3.30;;;19.20;99.90;;;;;;5037148;28;20202;-90
2023/07/30 03:33:48;;;;;;;7.80;3.70;;;19.10;99.90;;;;;;5045066;28;20184;-90
2023/07/30 03:36:14;;;;;;;5.80;3.67;;;;;;;;;;5046265;28;20268;-88
2023/07/30 03:38:41;;;;;;;5.17;3.57;;;19.00;99.90;;;;;;5044797;28;20224;-90
2023/07/30 03:41:07;;;;;;;8.50;3.67;;;19.00;99.90;;;;;;5044105;28;20439;-89
2023/07/30 03:43:33;;;;;;;4.90;3.50;;;19.00;99.90;;;;;;5045491;28;20411;-90
2023/07/30 03:45:59;;;;;;;3.00;2.70;;;;;;;;;;5044884;28;20169;-90
2023/07/30 03:48:25;;;;;;;5.63;3.80;;;;;;;;;;5060398;28;20438;-91
2023/07/30 03:50:55;;;;;;;3.50;3.20;;;19.00;99.90;;;;;;5047127;28;20404;-90
2023/07/30 03:53:21;;;;;;;4.80;3.40;;;;;;;;;;5060519;28;20518;-90
2023/07/30 03:55:47;;;;;;;3.77;3.30;;;;;;;;;;5057288;28;20440;-89
2023/07/30 03:58:14;;;;;;;3.97;3.20;;;;;;;;;;5034543;28;20475;-89
2023/07/30 04:00:40;;;;;;;3.90;3.50;;;;;;;;;;5043565;28;20417;-89
2023/07/30 04:03:06;;;;;;;4.80;2.90;;;;;;;;;;5043939;28;20428;-89
2023/07/30 04:05:32;;;;;;;5.50;3.70;;;;;;;;;;5046837;28;20507;-89
2023/07/30 04:07:58;;;;;;;5.03;3.53;;;;;;;;;;5044196;28;20463;-89
2023/07/30 04:10:26;;;;;;;6.67;3.20;;;19.00;99.90;;;;;;5042926;28;20425;-89
2023/07/30 04:12:51;;;;;;;4.17;3.20;;;;;;;;;;5042021;28;20442;-89
2023/07/30 04:15:18;;;;;;;6.13;3.40;;;;;;;;;;5045282;28;20419;-91
2023/07/30 04:17:44;;;;;;;5.33;3.30;;;;;;;;;;5041943;28;20463;-90
2023/07/30 04:20:09;;;;;;;3.30;2.87;;;18.90;99.90;;;;;;5044777;28;20436;-90
2023/07/30 04:22:36;;;;;;;4.70;3.63;;;19.00;99.90;;;;;;5046982;28;20838;-91
2023/07/30 04:25:03;;;;;;;6.30;4.00;;;19.10;99.90;;;;;;5047623;28;20180;-91
2023/07/30 04:27:30;;;;;;;4.37;3.00;;;19.00;99.90;;;;;;5052057;28;20420;-90
2023/07/30 04:29:56;;;;;;;5.20;3.30;;;;;;;;;;5049284;28;20515;-90
2023/07/30 04:32:22;;;;;;;4.00;3.20;;;;;;;;;;5060322;28;20827;-90
2023/07/30 04:34:48;;;;;;;6.40;3.40;;;;;;;;;;5043194;28;20420;-89
2023/07/30 04:37:14;;;;;;;5.20;3.60;;;18.80;99.90;;;;;;5040233;28;20463;-92
2023/07/30 04:39:39;;;;;;;4.53;3.50;;;18.60;99.90;;;;;;5032711;28;20436;-91
2023/07/30 04:42:05;;;;;;;5.20;3.20;;;18.60;99.90;;;;;;5037879;28;20200;-93
2023/07/30 04:44:31;;;;;;;5.13;2.70;;;18.50;99.90;;;;;;5049174;28;20181;-90
2023/07/30 04:46:59;;;;;;;4.47;2.40;;;18.40;99.90;;;;;;5040435;28;20169;-90
2023/07/30 04:49:26;;;;;;;3.03;2.40;;;18.20;99.90;;;;;;5021565;28;20201;-89
2023/07/30 04:52:08;;;;;;;2.80;2.17;;;18.20;99.90;;;;;;5020797;28;20439;-90
2023/07/30 04:54:36;;;;;;;3.57;2.27;;;18.10;99.90;;;;;;5025578;28;20420;-90
2023/07/30 04:57:02;;;;;;;1.70;1.60;;;18.10;99.90;;;;;;5024350;28;20500;-87
2023/07/30 04:59:28;;;;;;;2.30;1.57;;;;;;;;;;5020438;28;20452;-88
2023/07/30 05:01:54;;;;;;;1.70;1.60;;;;;;;;;;5020965;28;20433;-87
2023/07/30 05:04:20;;;;;;;2.00;1.63;;;;;;;;;;5038192;28;20401;-87
2023/07/30 05:06:46;;;;;;;2.63;2.30;;;;;;;;;;5036971;28;20393;-90
2023/07/30 05:09:12;;;;;;;3.13;1.53;;;;;;;;;;5022696;28;20961;-89
2023/07/30 05:11:39;;;;;;;1.93;1.80;;;17.80;99.90;;;;;;5041746;28;20429;-90
2023/07/30 05:14:04;;;;;;;4.70;1.90;;;;;;;;;;5040949;28;20474;-88
2023/07/30 05:16:30;;;;;;;1.80;1.70;;;17.70;99.90;;;;;;5040971;28;20412;-89
2023/07/30 05:18:56;;;;;;;3.43;1.63;;;;;;;;;;5024700;28;20555;-88
2023/07/30 05:21:22;;;;;;;6.43;1.90;;;;;;;;;;5040522;28;20352;-90
2023/07/30 05:23:47;;;;;;;1.60;1.50;;;17.60;99.90;;;;;;5042659;28;20802;-89
2023/07/30 05:26:13;;;;;;;2.57;2.20;;;;;;;;;;5043098;28;20430;-89
2023/07/30 05:28:42;;;;;;;2.70;1.27;;;17.60;99.90;;;;;;5043007;28;20176;-90
2023/07/30 05:31:08;;;;;;;4.10;2.20;;;17.60;99.90;;;;;;5043800;28;20436;-89
2023/07/30 05:33:34;;;;;;;2.30;1.70;;;;;;;;;;5042524;28;20416;-89
2023/07/30 05:36:00;;;;;;;3.40;1.90;;;17.70;99.90;;;;;;5043441;28;20196;-89
2023/07/30 05:38:25;;;;;;;2.73;1.80;;;17.70;99.90;;;;;;5042465;28;20455;-90
2023/07/30 05:40:51;;;;;;;5.00;1.93;;;17.90;99.90;;;;;;5042703;28;20173;-88
2023/07/30 05:43:17;;;;;;;5.40;2.20;;;18.20;99.90;;;;;;5043083;28;20177;-87
2023/07/30 05:45:43;;;;;;;2.73;1.47;;;18.20;99.90;;;;;;5042274;28;20218;-89
2023/07/30 05:48:09;;;;;;;4.00;1.60;;;;;;;;;;5040662;28;20180;-87
2023/07/30 05:50:35;;;;;;;2.40;1.37;;;18.30;99.90;;;;;;5061628;28;20400;-90
2023/07/30 05:53:00;;;;;;;2.37;1.23;;;;;;;;;;5060007;28;20506;-91
2023/07/30 05:55:27;;;;;;;2.80;2.30;;;;;;;;;;5057296;28;20810;-88
2023/07/30 05:57:55;;;;;;;1.90;1.47;;;18.20;99.90;;;;;;5039244;28;21030;-89
2023/07/30 06:00:21;;;;;;;2.93;2.03;;;;;;;;;;5041422;28;20396;-88
2023/07/30 06:02:48;;;;;;;3.07;2.00;;;;;;;;;;5043944;28;20432;-90
2023/07/30 06:05:13;;;;;;;4.00;2.10;;;;;;;;;;5043449;28;20408;-90
2023/07/30 06:07:40;;;;;;;2.70;1.10;;;;;;;;;;5043888;28;20423;-90
2023/07/30 06:10:06;;;;;;;3.03;1.60;;;;;;;;;;5042354;28;20421;-89
2023/07/30 06:12:32;;;;;;;4.10;1.70;;;;;;;;;;5041771;28;20439;-90
2023/07/30 06:14:58;;;;;;;2.20;1.20;;;;;;;;;;5041940;28;20411;-91
2023/07/30 06:17:24;;;;;;;1.30;1.20;;;;;;;;;;5042162;28;20408;-90
2023/07/30 06:19:50;;;;;;;2.63;1.60;;;;;;;;;;5042850;28;20463;-92
2023/07/30 06:22:24;;;;;;;1.70;1.60;;;19.50;99.90;;;;;;5046338;28;20470;-90
2023/07/30 06:24:53;;;;;;;2.13;1.60;;;;;;;;;;5006102;28;20479;-90
2023/07/30 06:27:20;;;;;;;2.40;1.93;;;21.80;99.90;;;;;;5026559;28;20420;-90
2023/07/30 06:29:47;;;;;;;2.30;1.50;;;21.20;99.90;;;;;;5060187;28;20399;-90
2023/07/30 06:32:13;;;;;;;1.80;1.27;;;;;;;;;;5042246;28;20964;-90
2023/07/30 06:34:39;;;;;;;2.30;1.80;;;;;;;;;;5058919;28;20450;-90
2023/07/30 06:37:05;;;;;;;2.27;1.77;;;;;;;;;;5059275;28;20404;-90
2023/07/30 06:39:31;;;;;;;2.37;1.80;;;;;;;;;;5041182;28;20463;-90
2023/07/30 06:41:57;;;;;;;2.00;1.80;;;;;;;;;;5040344;28;20846;-91
2023/07/30 06:44:25;;;;;;;1.87;1.50;;;;;;;;;;5042772;28;20404;-90
2023/07/30 06:51:54;;;;;;;3.53;1.50;;;;;;;;;;5054794;28;20493;-87
2023/07/30 06:54:20;;;;;;;1.73;1.40;;;24.90;99.90;;;;;;5052602;28;20427;-88
2023/07/30 06:56:46;;;;;;;2.50;1.70;;;;;;;;;;5031454;28;20737;-88
2023/07/30 06:59:12;;;;;;;1.80;1.40;;;;;;;;;;5042323;28;21006;-88
2023/07/30 07:01:37;;;;;;;2.17;1.70;;;25.90;99.90;;;;;;5032765;28;20459;-88
2023/07/30 07:04:03;;;;;;;3.00;2.30;;;;;;;;;;5023391;28;20445;-87
2023/07/30 07:06:29;;;;;;;2.23;1.73;;;;;;;;;;5024174;28;20185;-90
2023/07/30 07:08:55;;;;;;;2.30;2.10;;;21.60;99.90;;;;;;5015299;28;21885;-86
2023/07/30 07:11:21;;;;;;;3.23;2.30;;;;;;;;;;5020468;28;20459;-86
2023/07/30 07:13:46;;;;;;;3.03;2.00;;;20.50;99.90;;;;;;5021727;28;20320;-86
2023/07/30 07:16:12;;;;;;;2.70;2.03;;;20.30;99.90;;;;;;5032197;28;20450;-87
2023/07/30 07:18:37;;;;;;;4.40;2.03;;;19.90;99.90;;;;;;5029644;28;20213;-88
2023/07/30 07:21:03;;;;;;;6.80;2.10;;;19.80;99.90;;;;;;5016984;28;20293;-86
2023/07/30 07:23:29;;;;;;;5.00;2.90;;;;;;;;;;5024262;28;20193;-81
2023/07/30 07:25:55;;;;;;;3.50;1.47;;;;;;;;;;5010027;28;20228;-85
2023/07/30 07:28:20;;;;;;;4.27;1.93;;;18.90;99.90;;;;;;5011376;28;20480;-85
2023/07/30 07:30:46;;;;;;;2.70;1.70;;;18.60;99.90;;;;;;5014886;28;20633;-87
2023/07/30 07:33:12;;;;;;;2.40;1.93;;;;;;;;;;5015904;28;20675;-86
2023/07/30 07:35:39;;;;;;;10.70;1.83;;;18.30;99.90;;;;;;5020552;28;20182;-87
2023/07/30 07:38:05;;;;;;;2.00;1.80;;;18.40;99.90;;;;;;5029517;28;20479;-85
2023/07/30 07:40:35;;;;;;;2.90;2.10;;;18.40;99.90;;;;;;5050970;28;20759;-86
2023/07/30 07:43:01;;;;;;;1.50;1.23;;;18.40;99.90;;;;;;5028655;28;20215;-83
2023/07/30 07:45:27;;;;;;;2.27;1.67;;;18.30;99.90;;;;;;5023313;28;20489;-87
2023/07/30 07:47:53;;;;;;;2.63;2.30;;;;;;;;;;5017988;28;20516;-83
2023/07/30 07:50:19;;;;;;;1.93;1.73;;;;;;;;;;5021611;28;21187;-86
2023/07/30 07:52:45;;;;;;;1.77;1.60;;;;;;;;;;5012259;28;20435;-86
2023/07/30 07:55:11;;;;;;;3.03;2.40;;;18.30;99.90;;;;;;5017996;28;20428;-87
2023/07/30 07:57:37;;;;;;;4.40;1.90;;;;;;;;;;5016575;28;20528;-83
2023/07/30 08:00:05;;;;;;;3.30;2.37;;;;;;;;;;5021559;28;20456;-86
2023/07/30 08:02:31;;;;;;;3.27;2.30;;;;;;;;;;5027085;28;22345;-84
2023/07/30 08:04:57;;;;;;;2.93;2.43;;;;;;;;;;5014141;28;20462;-87
2023/07/30 08:07:23;;;;;;;3.47;2.50;;;;;;;;;;5022465;28;20466;-85
2023/07/30 08:09:51;;;;;;;4.13;2.73;;;;;;;;;;5015613;28;20467;-84
2023/07/30 08:12:17;;;;;;;3.93;2.60;;;;;;;;;;5018552;28;20633;-86
2023/07/30 08:14:43;;;;;;;3.10;2.57;;;;;;;;;;5019213;28;20886;-86
2023/07/30 08:17:08;;;;;;;2.43;2.23;;;19.10;99.90;;;;;;5019164;28;20582;-85
2023/07/30 08:19:34;;;;;;;8.30;3.00;;;19.20;99.90;;;;;;5013623;28;20598;-88
2023/07/30 08:22:00;;;;;;;2.53;2.33;;;;;;;;;;5010135;28;20208;-87
2023/07/30 08:24:25;;;;;;;3.83;2.40;;;20.20;99.90;;;;;;5005811;28;20176;-87
2023/07/30 08:26:51;;;;;;;5.40;2.40;;;21.00;99.90;;;;;;5003313;28;20424;-86
2023/07/30 08:29:17;;;;;;;2.43;2.00;;;;;;;;;;5022587;28;20184;-86
2023/07/30 08:31:43;;;;;;;2.87;2.00;;;;;;;;;;5028871;28;20689;-86
2023/07/30 08:34:08;;;;;;;2.73;1.87;;;;;;;;;;5008228;28;20535;-84
2023/07/30 08:36:34;;;;;;;3.33;2.10;;;;;;;;;;5009540;28;20858;-85
2023/07/30 08:39:02;;;;;;;4.03;2.00;;;22.90;99.90;;;;;;5022061;28;20476;-84
2023/07/30 08:41:27;;;;;;;2.73;2.10;;;23.50;99.90;;;;;;5013897;28;20448;-86
2023/07/30 08:43:53;;;;;;;2.70;2.20;;;22.90;99.90;;;;;;5014024;28;20931;-84
2023/07/30 08:46:19;;;;;;;2.67;2.27;;;22.80;99.90;;;;;;5013635;28;20708;-88
2023/07/30 08:48:45;;;;;;;3.03;2.73;;;23.90;99.90;;;;;;5016124;28;20352;-85
2023/07/30 08:51:12;;;;;;;4.27;2.27;;;23.80;99.90;;;;;;5032794;28;20221;-83
2023/07/30 08:54:07;;;;;;;3.00;2.57;;;24.00;99.90;;;;;;5034527;28;20463;-86
2023/07/30 09:15:16;;;;;;;5.07;2.00;;;21.70;99.90;;;;;;5015757;28;20483;-87
2023/07/30 09:17:42;;;;;;;2.27;2.07;;;22.70;99.90;;;;;;5016234;28;20468;-85
2023/07/30 09:20:08;;;;;;;3.20;2.20;;;;;;;;;;5023221;28;20468;-88
2023/07/30 09:22:40;;;;;;;2.27;2.07;;;24.10;99.90;;;;;;5019893;28;20194;-87
2023/07/30 09:25:07;;;;;;;3.20;2.50;;;24.10;99.90;;;;;;5019246;28;20446;-87
2023/07/30 09:27:34;;;;;;;2.37;2.17;;;23.10;99.90;;;;;;5018134;28;20482;-88
2023/07/30 09:30:01;;;;;;;2.40;1.97;;;23.20;99.90;;;;;;5014809;28;20589;-88
2023/07/30 09:32:28;;;;;;;2.47;1.80;;;24.00;99.90;;;;;;5015626;28;20432;-85
2023/07/30 09:34:54;;;;;;;4.60;2.17;;;23.70;99.90;;;;;;5019357;28;20955;-86
2023/07/30 09:37:20;;;;;;;4.13;2.57;;;23.30;99.90;;;;;;5017976;28;20586;-88
2023/07/30 09:39:49;;;;;;;4.07;2.33;;;24.00;99.90;;;;;;5021902;28;20608;-89
2023/07/30 09:42:16;;;;;;;3.83;2.20;;;24.30;99.90;;;;;;5018738;28;20183;-86
2023/07/30 09:44:41;;;;;;;2.60;2.10;;;23.90;99.90;;;;;;5022855;28;20437;-85
2023/07/30 09:47:10;;;;;;;4.23;2.33;;;22.60;99.90;;;;;;5010629;28;20525;-85
2023/07/30 09:49:38;;;;;;;3.30;2.43;;;22.20;99.90;;;;;;5016783;28;20186;-87
2023/07/30 09:52:05;;;;;;;5.00;1.90;;;22.20;99.90;;;;;;5012345;28;20528;-87
2023/07/30 09:54:32;;;;;;;3.23;1.90;;;23.00;99.90;;;;;;5018777;28;20495;-87
2023/07/30 09:56:58;;;;;;;3.57;2.07;;;23.40;99.90;;;;;;5012208;28;20461;-87
2023/07/30 09:59:24;;;;;;;2.40;1.97;;;;;;;;;;5013797;28;20461;-88
2023/07/30 10:01:52;;;;;;;3.27;2.40;;;;;;;;;;5005661;28;20568;-85
2023/07/30 10:04:20;;;;;;;3.43;2.20;;;22.80;99.90;;;;;;5013070;28;20444;-85
2023/07/30 10:06:54;;;;;;;6.60;2.40;;;23.40;99.90;;;;;;5011236;28;20460;-86
2023/07/30 10:09:23;;;;;;;4.57;2.10;;;23.40;99.90;;;;;;5013528;28;20436;-88
2023/07/30 10:11:52;;;;;;;2.23;1.83;;;23.90;99.90;;;;;;5013353;28;22391;-84
2023/07/30 10:14:20;;;;;;;3.40;2.20;;;23.80;99.90;;;;;;5012912;28;20454;-90
2023/07/30 10:16:54;;;;;;;5.57;2.50;;;23.90;99.90;;;;;;5017141;28;20472;-92
2023/07/30 10:19:26;;;;;;;4.50;2.70;;;23.60;99.90;;;;;;5015407;28;20606;-87
2023/07/30 10:22:18;;;;;;;2.80;1.80;;;23.90;99.90;;;;;;5016814;28;20456;-88
2023/07/30 10:24:58;;;;;;;2.63;1.93;;;23.40;99.90;;;;;;5013893;28;21276;-86
2023/07/30 10:27:26;;;;;;;4.70;2.63;;;23.30;99.90;;;;;;5015131;28;20539;-86
2023/07/30 10:30:15;;;;;;;4.10;2.30;;;22.70;99.90;;;;;;5012748;28;20436;-86
2023/07/30 10:32:55;;;;;;;3.30;2.70;;;22.10;99.90;;;;;;5018073;28;20430;-87
2023/07/30 10:35:47;;;;;;;3.90;2.50;;;21.40;99.90;;;;;;5017093;28;20551;-85
2023/07/30 10:38:29;;;;;;;4.60;2.43;;;21.40;99.90;;;;;;5016251;28;20488;-86
2023/07/30 10:41:10;;;;;;;4.93;2.07;;;21.40;99.90;;;;;;5013070;28;20460;-87
2023/07/30 10:43:42;;;;;;;2.50;2.10;;;21.80;99.90;;;;;;5015555;28;20428;-87
2023/07/30 10:46:11;;;;;;;5.77;2.80;;;22.00;99.90;;;;;;5012100;28;20460;-85
2023/07/30 10:48:40;;;;;;;2.30;1.97;;;22.20;99.90;;;;;;5020934;28;20433;-88
2023/07/30 10:51:10;;;;;;;3.17;2.00;;;22.50;99.90;;;;;;5015217;28;20542;-85
2023/07/30 10:53:36;;;;;;;3.13;2.20;;;23.80;99.90;;;;;;5023441;28;20516;-86
2023/07/30 10:56:04;;;;;;;4.47;2.40;;;22.90;99.90;;;;;;5019290;28;20526;-88
2023/07/30 10:58:31;;;;;;;4.53;3.77;;;23.00;99.90;;;;;;5018441;28;20461;-86
2023/07/30 11:00:57;;;;;;;2.77;2.50;;;23.00;99.90;;;;;;5020454;28;20428;-86
2023/07/30 11:03:26;;;;;;;7.03;2.90;;;23.20;99.90;;;;;;5020590;28;20428;-88
2023/07/30 11:05:52;;;;;;;3.83;1.90;;;23.60;99.90;;;;;;5025486;28;20456;-87
2023/07/30 11:08:18;;;;;;;5.67;2.17;;;22.80;99.90;;;;;;5024298;28;20797;-87
2023/07/30 11:10:46;;;;;;;4.07;1.87;;;21.80;99.90;;;;;;5021372;28;20531;-86
2023/07/30 11:13:13;;;;;;;3.17;1.83;;;21.80;99.90;;;;;;5018275;28;20185;-88
2023/07/30 11:15:45;;;;;;;2.23;1.90;;;21.30;99.90;;;;;;5033685;28;21020;-87
2023/07/30 11:18:12;;;;;;;2.10;1.60;;;21.30;99.90;;;;;;5020423;28;20460;-87
2023/07/30 11:20:38;;;;;;;2.30;1.73;;;21.20;99.90;;;;;;5028418;28;20421;-88
2023/07/30 11:23:21;;;;;;;3.33;1.73;;;21.10;99.90;;;;;;5027886;28;20968;-87
2023/07/30 11:25:48;;;;;;;3.70;2.03;;;20.80;99.90;;;;;;5022947;28;20205;-87
2023/07/30 11:28:14;;;;;;;4.13;1.97;;;;;;;;;;5024318;28;20439;-86
2023/07/30 11:30:40;;;;;;;3.50;1.87;;;;;;;;;;5023785;28;20473;-87
2023/07/30 11:33:06;;;;;;;2.10;1.90;;;21.40;99.90;;;;;;5031257;28;20949;-88
2023/07/30 11:35:32;;;;;;;2.60;1.67;;;21.80;99.90;;;;;;5035678;28;20443;-87
2023/07/30 11:37:57;;;;;;;1.90;1.50;;;21.60;99.90;;;;;;5034200;28;20573;-87
2023/07/30 11:40:24;;;;;;;1.43;1.27;;;;;;;;;;5025360;28;20196;-88
2023/07/30 11:42:50;;;;;;;2.27;1.63;;;;;;;;;;5026782;28;20183;-88
2023/07/30 11:45:23;;;;;;;1.40;1.03;;;21.70;99.90;;;;;;5020539;28;20518;-86
2023/07/30 11:47:49;;;;;;;6.57;1.67;;;21.70;99.90;;;;;;5029620;28;20453;-88
2023/07/30 11:50:15;;;;;;;2.93;1.83;;;21.80;99.90;;;;;;5025285;28;20934;-86
2023/07/30 11:52:55;;;;;;;6.07;1.77;;;21.80;99.90;;;;;;5030061;28;20443;-87
2023/07/30 11:55:21;;;;;;;2.17;1.33;;;21.90;99.90;;;;;;5024750;28;20491;-87
2023/07/30 11:57:47;;;;;;;1.83;1.30;;;21.90;99.90;;;;;;5024708;28;20466;-87
2023/07/30 12:00:13;;;;;;;3.20;1.77;;;22.10;99.90;;;;;;5029722;28;20437;-88
2023/07/30 12:02:39;;;;;;;2.40;1.70;;;;;;;;;;5027027;28;20221;-87
2023/07/30 12:05:05;;;;;;;3.63;1.40;;;22.20;99.90;;;;;;5024174;28;20488;-88
2023/07/30 12:07:32;;;;;;;2.20;1.60;;;22.40;99.90;;;;;;5023385;28;20455;-89
2023/07/30 12:10:12;;;;;;;2.87;1.40;;;22.00;99.90;;;;;;5024245;28;20436;-88
2023/07/30 12:12:52;;;;;;;4.20;1.70;;;22.10;99.90;;;;;;5025964;28;20436;-87
2023/07/30 12:15:18;;;;;;;2.43;1.30;;;;;;;;;;5031880;28;20471;-88
2023/07/30 12:17:44;;;;;;;3.00;1.80;;;22.60;99.90;;;;;;5025535;28;20465;-88
2023/07/30 12:20:11;;;;;;;1.93;1.27;;;22.10;99.90;;;;;;5039336;28;20436;-86
2023/07/30 12:22:38;;;;;;;3.50;1.57;;;;;;;;;;5025547;28;20188;-88
2023/07/30 12:25:04;;;;;;;2.40;1.20;;;;;;;;;;5024196;28;20529;-88
2023/07/30 12:27:30;;;;;;;4.13;1.40;;;21.90;99.90;;;;;;5029821;28;20457;-88
2023/07/30 12:29:56;;;;;;;10.53;1.63;;;;;;;;;;5026607;28;20622;-88
2023/07/30 12:32:22;;;;;;;3.80;1.23;;;;;;;;;;5026811;28;20453;-88
2023/07/30 12:34:47;;;;;;;2.80;1.50;;;21.50;99.90;;;;;;5023962;28;21236;-88
2023/07/30 12:37:14;;;;;;;4.80;1.40;;;;;;;;;;5031866;28;20459;-87
2023/07/30 12:39:39;;;;;;;1.50;1.27;;;22.30;99.90;;;;;;5036021;28;20213;-88
2023/07/30 12:42:05;;;;;;;5.33;1.30;;;22.00;99.90;;;;;;5045020;28;20435;-87
2023/07/30 12:44:30;;;;;;;1.80;1.37;;;21.90;99.90;;;;;;5029136;28;20189;-87
2023/07/30 12:46:56;;;;;;;3.57;1.63;;;;;;;;;;5032021;28;20206;-88
2023/07/30 12:49:22;;;;;;;5.03;1.43;;;;;;;;;;5026470;28;20650;-87
2023/07/30 12:51:48;;;;;;;1.37;1.00;;;22.30;99.90;;;;;;5030611;28;20436;-86
2023/07/30 12:54:13;;;;;;;7.53;2.20;;;22.20;99.90;;;;;;5030416;28;20436;-87
2023/07/30 12:56:39;;;;;;;4.00;1.33;;;21.90;99.90;;;;;;5025325;28;20198;-86
2023/07/30 12:59:04;;;;;;;1.97;1.37;;;22.10;99.90;;;;;;5024217;28;20202;-89
2023/07/30 13:01:30;;;;;;;7.77;1.90;;;;;;;;;;5020943;28;20193;-88
2023/07/30 13:03:56;;;;;;;3.13;1.30;;;22.20;99.90;;;;;;5024483;28;20186;-87
2023/07/30 13:06:21;;;;;;;1.30;1.20;;;22.30;99.90;;;;;;5028060;28;20445;-87
2023/07/30 13:08:47;;;;;;;1.20;1.10;;;22.40;99.90;;;;;;5025753;28;20712;-89
2023/07/30 13:11:13;;;;;;;1.30;1.20;;;22.20;99.90;;;;;;5025712;28;20201;-87
2023/07/30 13:13:39;;;;;;;2.40;1.20;;;;;;;;;;5022731;28;20204;-89
2023/07/30 13:16:04;;;;;;;3.63;1.40;;;22.50;99.90;;;;;;5026829;28;20351;-88
2023/07/30 13:18:30;;;;;;;2.87;1.60;;;;;;;;;;5023180;28;20469;-87
2023/07/30 13:20:56;;;;;;;3.60;1.70;;;;;;;;;;5024789;28;20188;-87
2023/07/30 13:23:25;;;;;;;2.63;1.40;;;;;;;;;;5030930;28;20451;-88
2023/07/30 13:25:50;;;;;;;4.60;2.10;;;22.60;99.90;;;;;;5025637;28;20444;-89
2023/07/30 13:28:16;;;;;;;3.20;1.87;;;22.30;99.90;;;;;;5023755;28;20526;-87
2023/07/30 13:30:41;;;;;;;6.80;1.73;;;22.10;99.90;;;;;;5022980;28;20848;-86
2023/07/30 13:33:07;;;;;;;2.07;1.40;;;;;;;;;;5012100;28;20185;-88
2023/07/30 13:35:33;;;;;;;4.70;1.90;;;;;;;;;;5019711;28;20190;-88
2023/07/30 13:37:59;;;;;;;8.03;1.77;;;22.10;99.90;;;;;;5021871;28;21197;-88
2023/07/30 13:40:25;;;;;;;3.20;1.47;;;;;;;;;;5019744;28;20436;-87
2023/07/30 13:42:51;;;;;;;2.80;2.30;;;22.40;99.90;;;;;;5021153;28;20741;-88
2023/07/30 13:45:16;;;;;;;3.40;1.80;;;22.40;99.90;;;;;;5019796;28;20527;-88
2023/07/30 13:47:42;;;;;;;6.27;2.03;;;23.00;99.90;;;;;;5020505;28;21249;-88